createdAt,value
2023-04-18T00:01:12.779Z,57.01
2023-04-18T00:04:15.388Z,57.21
2023-04-18T00:07:18.069Z,57.39
2023-04-18T00:10:20.329Z,57.47
2023-04-18T00:13:22.873Z,57.40
2023-04-18T00:16:25.097Z,57.02
2023-04-18T00:19:27.766Z,57.29
2023-04-18T00:22:29.878Z,56.86
2023-04-18T00:25:31.973Z,57.12
2023-04-18T00:28:34.097Z,57.66
2023-04-18T00:31:36.273Z,57.74
2023-04-18T00:34:38.977Z,57.64
2023-04-18T00:37:41.129Z,57.96
2023-04-18T00:40:43.798Z,57.86
2023-04-18T00:43:45.942Z,58.23
2023-04-18T00:46:48.376Z,58.33
2023-04-18T00:49:50.591Z,58.09
2023-04-18T00:52:53.720Z,57.69
2023-04-18T00:55:55.905Z,58.00
2023-04-18T00:58:58.234Z,57.77
2023-04-18T01:02:00.671Z,57.93
2023-04-18T01:05:03.792Z,57.53
2023-04-18T01:08:06.306Z,58.11
2023-04-18T01:11:10.529Z,57.92
2023-04-18T01:14:12.932Z,57.63
2023-04-18T01:17:16.224Z,57.92
2023-04-18T01:20:21.521Z,57.59
2023-04-18T01:23:23.679Z,57.91
2023-04-18T01:26:26.029Z,57.85
2023-04-18T01:29:28.230Z,57.94
2023-04-18T01:32:34.854Z,57.75
2023-04-18T01:35:37.028Z,57.88
2023-04-18T01:38:39.131Z,57.83
2023-04-18T01:41:44.418Z,57.48
2023-04-18T01:44:46.566Z,58.18
2023-04-18T01:47:48.829Z,57.73
2023-04-18T01:50:50.991Z,57.34
2023-04-18T01:53:53.291Z,57.34
2023-04-18T01:56:55.464Z,56.92
2023-04-18T01:59:57.846Z,57.13
2023-04-18T02:03:00.161Z,57.20
2023-04-18T02:06:03.944Z,56.87
2023-04-18T02:09:06.054Z,57.14
2023-04-18T02:12:08.269Z,56.90
2023-04-18T02:15:11.094Z,56.99
2023-04-18T02:18:13.285Z,56.84
2023-04-18T02:21:15.920Z,56.86
2023-04-18T02:24:18.127Z,57.13
2023-04-18T02:27:20.617Z,57.29
2023-04-18T02:30:23.491Z,56.77
2023-04-18T02:33:25.677Z,57.49
2023-04-18T02:36:28.376Z,56.96
2023-04-18T02:39:30.803Z,57.04
2023-04-18T02:42:33.141Z,57.48
2023-04-18T02:45:36.675Z,57.57
2023-04-18T02:48:38.908Z,57.53
2023-04-18T02:51:42.228Z,57.52
2023-04-18T02:54:44.691Z,57.91
2023-04-18T02:57:51.692Z,57.61
2023-04-18T03:01:13.916Z,57.50
2023-04-18T03:04:48.284Z,57.44
2023-04-18T03:07:50.718Z,57.56
2023-04-18T03:10:56.393Z,58.09
2023-04-18T03:14:00.455Z,57.57
2023-04-18T03:17:09.405Z,57.67
2023-04-18T03:20:15.599Z,57.48
2023-04-18T03:23:17.890Z,57.11
2023-04-18T03:26:21.326Z,57.29
2023-04-18T03:29:23.574Z,57.27
2023-04-18T03:32:27.026Z,57.24
2023-04-18T03:35:29.382Z,57.52
2023-04-18T03:38:31.914Z,57.79
2023-04-18T03:41:34.080Z,58.06
2023-04-18T03:44:36.730Z,58.65
2023-04-18T03:47:39.545Z,57.91
2023-04-18T03:50:41.784Z,57.98
2023-04-18T03:53:45.655Z,57.93
2023-04-18T03:56:47.954Z,57.64
2023-04-18T03:59:51.128Z,57.69
2023-04-18T04:02:53.799Z,58.02
2023-04-18T04:05:56.908Z,58.19
2023-04-18T04:08:59.452Z,58.54
2023-04-18T04:12:03.415Z,58.28
2023-04-18T04:15:06.474Z,58.44
2023-04-18T04:18:09.820Z,59.17
2023-04-18T04:21:15.730Z,59.11
2023-04-18T04:24:30.716Z,59.14
2023-04-18T04:27:33.984Z,59.27
2023-04-18T04:30:37.314Z,59.36
2023-04-18T04:33:40.981Z,59.33
2023-04-18T04:36:51.189Z,59.51
2023-04-18T04:39:53.917Z,58.60
2023-04-18T04:43:15.515Z,59.14
2023-04-18T04:46:20.139Z,59.33
2023-04-18T04:49:25.101Z,59.19
2023-04-18T04:52:27.327Z,59.62
2023-04-18T04:55:29.747Z,59.58
2023-04-18T04:58:33.686Z,59.81
2023-04-18T05:01:46.737Z,60.27
2023-04-18T05:04:50.097Z,59.69
2023-04-18T05:07:52.270Z,59.68
2023-04-18T05:10:55.252Z,60.24
2023-04-18T05:13:57.455Z,60.55
2023-04-18T05:16:59.738Z,60.00
2023-04-18T05:20:01.914Z,60.39
2023-04-18T05:23:04.119Z,59.99
2023-04-18T05:26:06.662Z,60.50
2023-04-18T05:29:08.840Z,60.14
2023-04-18T05:32:11.920Z,60.15
2023-04-18T05:35:14.579Z,59.88
2023-04-18T05:38:16.718Z,59.87
2023-04-18T05:41:18.884Z,60.26
2023-04-18T05:44:21.282Z,59.14
2023-04-18T05:47:34.291Z,59.75
2023-04-18T05:50:39.384Z,59.14
2023-04-18T05:53:41.524Z,59.01
2023-04-18T05:56:44.337Z,58.93
2023-04-18T05:59:46.545Z,58.23
2023-04-18T06:02:49.672Z,58.82
2023-04-18T06:05:56.219Z,58.11
2023-04-18T06:09:04.648Z,58.22
2023-04-18T06:13:51.681Z,57.92
2023-04-18T06:17:38.298Z,57.69
2023-04-18T06:20:44.250Z,57.59
2023-04-18T06:23:48.575Z,57.51
2023-04-18T06:26:52.051Z,57.34
2023-04-18T06:29:59.149Z,56.92
2023-04-18T06:33:01.966Z,57.46
2023-04-18T06:36:05.661Z,57.57
2023-04-18T06:39:08.316Z,58.00
2023-04-18T06:42:13.121Z,57.55
2023-04-18T06:45:20.079Z,56.79
2023-04-18T06:48:22.737Z,57.13
2023-04-18T06:54:41.089Z,56.76
2023-04-18T06:57:43.630Z,56.46
2023-04-18T07:00:49.087Z,55.90
2023-04-18T07:03:54.540Z,55.85
2023-04-18T07:07:04.989Z,55.46
2023-04-18T07:10:09.803Z,54.67
2023-04-18T07:13:14.560Z,54.48
2023-04-18T07:16:26.595Z,54.46
2023-04-18T07:19:29.264Z,54.08
2023-04-18T07:22:31.774Z,53.76
2023-04-18T07:25:34.649Z,53.63
2023-04-18T07:28:44.096Z,53.25
2023-04-18T07:31:51.160Z,53.29
2023-04-18T07:34:58.597Z,53.67
2023-04-18T07:38:01.702Z,53.34
2023-04-18T07:41:21.105Z,53.19
2023-04-18T07:44:27.091Z,52.31
2023-04-18T07:47:30.854Z,52.22
2023-04-18T07:50:34.671Z,51.47
2023-04-18T07:53:40.599Z,52.15
2023-04-18T07:56:55.958Z,50.63
2023-04-18T08:00:03.911Z,50.54
2023-04-18T08:03:20.093Z,49.89
2023-04-18T08:06:24.086Z,49.81
2023-04-18T08:09:26.404Z,49.25
2023-04-18T08:12:28.598Z,48.63
2023-04-18T08:15:32.781Z,47.88
2023-04-18T08:18:35.840Z,45.53
2023-04-18T08:21:39.179Z,45.28
2023-04-18T08:24:46.444Z,45.26
2023-04-18T08:27:53.469Z,44.86
2023-04-18T08:30:56.625Z,44.92
2023-04-18T08:33:58.836Z,44.21
2023-04-18T08:37:01.079Z,44.16
2023-04-18T08:40:05.708Z,43.82
2023-04-18T08:43:09.421Z,43.18
2023-04-18T08:46:13.115Z,42.93
2023-04-18T08:49:17.587Z,42.82
2023-04-18T08:52:26.295Z,42.36
2023-04-18T08:55:30.611Z,42.25
2023-04-18T08:59:08.960Z,41.49
2023-04-18T09:02:14.300Z,40.90
2023-04-18T09:05:20.023Z,41.63
2023-04-18T09:08:26.044Z,41.82
2023-04-18T09:11:29.960Z,41.22
2023-04-18T09:14:32.695Z,40.76
2023-04-18T09:17:46.049Z,40.78
2023-04-18T09:20:49.826Z,41.24
2023-04-18T09:24:08.573Z,41.00
2023-04-18T09:27:14.286Z,40.77
2023-04-18T09:30:39.750Z,41.19
2023-04-18T09:33:52.804Z,41.53
2023-04-18T09:37:15.429Z,41.93
2023-04-18T09:40:22.221Z,41.43
2023-04-18T09:43:24.377Z,42.18
2023-04-18T09:46:27.837Z,40.77
2023-04-18T09:49:33.237Z,40.14
2023-04-18T09:52:40.271Z,39.64
2023-04-18T09:55:45.560Z,39.82
2023-04-18T09:59:14.047Z,40.56
2023-04-18T10:02:23.068Z,40.30
2023-04-18T10:05:32.342Z,40.10
2023-04-18T10:08:34.871Z,40.26
2023-04-18T10:11:37.269Z,39.63
2023-04-18T10:14:42.936Z,40.46
2023-04-18T10:18:00.629Z,40.85
2023-04-18T10:21:09.163Z,40.24
2023-04-18T10:24:49.971Z,40.23
2023-04-18T10:28:02.944Z,40.21
2023-04-18T10:31:05.670Z,40.37
2023-04-18T10:34:07.952Z,39.93
2023-04-18T10:37:12.730Z,39.80
2023-04-18T10:40:15.415Z,39.81
2023-04-18T10:43:17.621Z,39.92
2023-04-18T10:46:31.168Z,40.21
2023-04-18T10:49:38.065Z,40.11
2023-04-18T10:52:41.683Z,39.38
2023-04-18T10:55:44.751Z,39.31
2023-04-18T10:58:54.202Z,39.24
2023-04-18T11:02:10.126Z,38.96
2023-04-18T11:05:15.516Z,39.21
2023-04-18T11:08:24.458Z,39.49
2023-04-18T11:11:26.724Z,39.22
2023-04-18T11:14:40.298Z,39.63
2023-04-18T11:17:45.329Z,39.16
2023-04-18T11:20:51.325Z,39.45
2023-04-18T11:23:55.749Z,38.59
2023-04-18T11:26:58.416Z,38.23
2023-04-18T11:30:01.628Z,38.65
2023-04-18T11:33:13.962Z,38.48
2023-04-18T11:36:16.165Z,38.25
2023-04-18T11:39:22.301Z,38.04
2023-04-18T11:42:28.612Z,38.14
2023-04-18T11:45:31.278Z,38.08
2023-04-18T11:48:41.171Z,37.28
2023-04-18T11:51:46.326Z,37.71
2023-04-18T11:54:52.389Z,38.05
2023-04-18T11:58:01.723Z,38.29
2023-04-18T12:01:17.754Z,37.81
2023-04-18T12:04:20.543Z,37.70
2023-04-18T12:07:40.065Z,37.07
2023-04-18T12:10:50.691Z,37.10
2023-04-18T12:13:56.231Z,37.00
2023-04-18T12:16:58.649Z,36.49
2023-04-18T12:20:06.195Z,36.17
2023-04-18T12:23:08.452Z,36.46
2023-04-18T12:26:16.522Z,35.99
2023-04-18T12:29:19.047Z,35.62
2023-04-18T12:32:21.985Z,35.69
2023-04-18T12:35:25.108Z,35.43
2023-04-18T12:38:27.552Z,35.38
2023-04-18T12:41:31.903Z,35.95
2023-04-18T12:44:34.802Z,35.46
2023-04-18T12:47:41.502Z,34.56
2023-04-18T12:50:46.160Z,35.41
2023-04-18T12:53:48.270Z,35.61
2023-04-18T12:56:50.515Z,35.24
2023-04-18T12:59:52.688Z,35.51
2023-04-18T13:02:55.047Z,35.88
2023-04-18T13:05:57.270Z,35.71
2023-04-18T13:08:59.387Z,34.82
2023-04-18T13:12:02.510Z,35.42
2023-04-18T13:15:06.806Z,35.47
2023-04-18T13:18:09.130Z,35.42
2023-04-18T13:21:11.294Z,35.28
2023-04-18T13:24:13.521Z,35.49
2023-04-18T13:27:15.949Z,35.05
2023-04-18T13:30:18.210Z,34.83
2023-04-18T13:33:20.621Z,34.85
2023-04-18T13:36:23.998Z,34.35
2023-04-18T13:39:26.605Z,34.03
2023-04-18T13:42:28.836Z,34.31
2023-04-18T13:45:30.999Z,33.56
2023-04-18T13:48:33.104Z,33.96
2023-04-18T13:51:35.331Z,33.48
2023-04-18T13:54:37.730Z,33.37
2023-04-18T13:57:41.133Z,33.75
2023-04-18T14:00:43.454Z,33.38
2023-04-18T14:03:47.520Z,33.42
2023-04-18T14:06:50.495Z,33.04
2023-04-18T14:09:53.882Z,32.46
2023-04-18T14:12:56.602Z,32.75
2023-04-18T14:15:59.736Z,32.61
2023-04-18T14:19:02.402Z,32.75
2023-04-18T14:22:04.515Z,31.47
2023-04-18T14:25:10.000Z,30.29
2023-04-18T14:28:12.213Z,30.43
2023-04-18T14:31:15.289Z,30.16
2023-04-18T14:34:17.435Z,30.72
2023-04-18T14:37:19.557Z,30.33
2023-04-18T14:40:22.602Z,29.86
2023-04-18T14:43:25.212Z,29.55
2023-04-18T14:46:28.317Z,29.56
2023-04-18T14:49:30.589Z,29.63
2023-04-18T14:52:32.696Z,29.54
2023-04-18T14:55:34.883Z,30.51
2023-04-18T14:58:37.121Z,29.25
2023-04-18T15:01:41.473Z,29.10
2023-04-18T15:04:43.679Z,29.36
2023-04-18T15:07:46.924Z,29.26
2023-04-18T15:10:51.184Z,28.77
2023-04-18T15:13:53.439Z,28.99
2023-04-18T15:16:55.942Z,29.38
2023-04-18T15:20:01.414Z,29.44
2023-04-18T15:23:03.612Z,29.23
2023-04-18T15:26:06.130Z,29.24
2023-04-18T15:29:08.438Z,29.00
2023-04-18T15:32:11.021Z,30.97
2023-04-18T15:35:13.228Z,29.59
2023-04-18T15:38:15.441Z,29.77
2023-04-18T15:41:17.547Z,29.46
2023-04-18T15:44:19.814Z,29.61
2023-04-18T15:47:21.947Z,30.00
2023-04-18T15:50:24.264Z,30.80
2023-04-18T15:53:29.592Z,29.67
2023-04-18T15:56:33.601Z,32.31
2023-04-18T15:59:36.307Z,29.97
2023-04-18T16:02:38.686Z,30.52
2023-04-18T16:05:41.428Z,31.48
2023-04-18T16:08:43.614Z,30.86
2023-04-18T16:11:45.903Z,31.43
2023-04-18T16:14:48.003Z,30.03
2023-04-18T16:17:52.809Z,32.78
2023-04-18T16:20:54.938Z,32.17
2023-04-18T16:23:57.041Z,32.63
2023-04-18T16:26:59.219Z,30.56
2023-04-18T16:30:01.452Z,31.46
2023-04-18T16:33:03.974Z,30.45
2023-04-18T16:36:06.940Z,30.38
2023-04-18T16:39:09.076Z,30.24
2023-04-18T16:42:12.471Z,29.47
2023-04-18T16:45:17.262Z,29.46
2023-04-18T16:48:19.387Z,29.33
2023-04-18T16:51:24.370Z,29.19
2023-04-18T16:54:26.530Z,29.18
2023-04-18T16:57:28.695Z,29.88
2023-04-18T17:00:36.974Z,29.65
2023-04-18T17:03:40.965Z,30.67
2023-04-18T17:06:43.736Z,30.49
2023-04-18T17:09:45.949Z,29.98
2023-04-18T17:12:49.335Z,30.54
2023-04-18T17:15:51.542Z,30.31
2023-04-18T17:18:53.746Z,30.82
2023-04-18T17:21:56.087Z,31.69
2023-04-18T17:24:58.254Z,31.06
2023-04-18T17:28:02.230Z,30.48
2023-04-18T17:31:04.651Z,30.80
2023-04-18T17:34:10.909Z,31.41
2023-04-18T17:37:13.685Z,31.39
2023-04-18T17:40:15.810Z,31.77
2023-04-18T17:43:18.034Z,31.63
2023-04-18T17:46:20.359Z,32.75
2023-04-18T17:49:22.677Z,32.27
2023-04-18T17:52:24.959Z,32.38
2023-04-18T17:55:27.159Z,32.25
2023-04-18T17:58:29.808Z,32.74
2023-04-18T18:01:32.895Z,32.81
2023-04-18T18:04:35.305Z,32.57
2023-04-18T18:07:38.313Z,32.84
2023-04-18T18:10:41.280Z,32.79
2023-04-18T18:13:43.772Z,32.98
2023-04-18T18:16:46.292Z,32.90
2023-04-18T18:19:48.416Z,32.89
2023-04-18T18:22:51.378Z,32.86
2023-04-18T18:25:53.552Z,32.72
2023-04-18T18:28:55.727Z,33.26
2023-04-18T18:31:57.896Z,33.55
2023-04-18T18:35:00.179Z,33.85
2023-04-18T18:38:02.329Z,33.92
2023-04-18T18:41:04.711Z,33.56
2023-04-18T18:44:07.087Z,34.05
2023-04-18T18:47:09.264Z,33.80
2023-04-18T18:50:11.496Z,33.83
2023-04-18T18:53:16.810Z,34.07
2023-04-18T18:56:19.251Z,34.09
2023-04-18T18:59:21.404Z,33.26
2023-04-18T19:02:23.814Z,33.68
2023-04-18T19:05:26.180Z,34.08
2023-04-18T19:08:28.345Z,33.67
2023-04-18T19:11:30.657Z,34.08
2023-04-18T19:14:33.049Z,35.15
2023-04-18T19:17:35.342Z,34.81
2023-04-18T19:20:40.291Z,35.04
2023-04-18T19:23:42.482Z,34.69
2023-04-18T19:26:44.670Z,34.80
2023-04-18T19:29:46.805Z,35.06
2023-04-18T19:32:49.060Z,35.32
2023-04-18T19:35:51.605Z,34.63
2023-04-18T19:38:53.836Z,35.11
2023-04-18T19:41:56.053Z,35.67
2023-04-18T19:44:59.304Z,35.21
2023-04-18T19:48:01.531Z,35.21
2023-04-18T19:51:04.747Z,35.42
2023-04-18T19:54:07.036Z,35.36
2023-04-18T19:57:09.151Z,34.84
2023-04-18T20:00:13.032Z,34.83
2023-04-18T20:03:17.012Z,34.97
2023-04-18T20:06:20.112Z,34.92
2023-04-18T20:09:22.359Z,35.06
2023-04-18T20:12:24.554Z,34.50
2023-04-18T20:15:26.709Z,34.07
2023-04-18T20:18:30.320Z,34.35
2023-04-18T20:21:32.518Z,34.23
2023-04-18T20:24:34.905Z,34.88
2023-04-18T20:27:37.176Z,34.33
2023-04-18T20:30:39.479Z,34.78
2023-04-18T20:33:41.817Z,34.49
2023-04-18T20:36:44.689Z,34.75
2023-04-18T20:39:47.463Z,34.61
2023-04-18T20:42:49.704Z,34.84
2023-04-18T20:45:52.000Z,34.51
2023-04-18T20:48:54.156Z,35.01
2023-04-18T20:51:56.496Z,35.12
2023-04-18T20:54:58.702Z,35.00
2023-04-18T20:58:00.880Z,34.25
2023-04-18T21:01:03.169Z,34.37
2023-04-18T21:04:05.399Z,34.38
2023-04-18T21:07:07.586Z,34.68
2023-04-18T21:10:09.890Z,34.75
2023-04-18T21:13:12.661Z,34.38
2023-04-18T21:16:15.044Z,34.90
2023-04-18T21:19:17.288Z,34.91
2023-04-18T21:22:19.503Z,35.36
2023-04-18T21:25:21.707Z,35.02
2023-04-18T21:28:23.800Z,35.18
2023-04-18T21:31:27.308Z,35.20
2023-04-18T21:34:29.490Z,35.63
2023-04-18T21:37:31.937Z,35.65
2023-04-18T21:40:34.115Z,35.93
2023-04-18T21:43:36.273Z,35.32
2023-04-18T21:46:38.427Z,35.90
2023-04-18T21:49:41.796Z,35.60
2023-04-18T21:52:43.994Z,35.87
2023-04-18T21:55:46.187Z,35.73
2023-04-18T21:58:49.400Z,35.98
2023-04-18T22:01:51.623Z,36.20
2023-04-18T22:04:53.753Z,36.01
2023-04-18T22:07:58.525Z,36.11
2023-04-18T22:11:01.060Z,36.05
2023-04-18T22:14:03.274Z,35.98
2023-04-18T22:17:05.544Z,36.19
2023-04-18T22:20:08.389Z,36.19
2023-04-18T22:23:11.263Z,36.32
2023-04-18T22:26:13.542Z,36.72
2023-04-18T22:29:15.962Z,36.52
2023-04-18T22:32:18.208Z,36.37
2023-04-18T22:35:20.479Z,36.69
2023-04-18T22:38:22.588Z,36.84
2023-04-18T22:41:24.779Z,36.68
2023-04-18T22:44:27.008Z,36.71
2023-04-18T22:47:29.183Z,36.81
2023-04-18T22:50:31.405Z,36.92
2023-04-18T22:53:33.585Z,36.87
2023-04-18T22:56:35.793Z,37.26
2023-04-18T22:59:38.019Z,37.13
2023-04-18T23:02:40.726Z,37.25
2023-04-18T23:05:43.028Z,36.85
2023-04-18T23:08:45.227Z,37.04
2023-04-18T23:11:47.440Z,37.07
2023-04-18T23:14:49.705Z,36.88
2023-04-18T23:17:53.088Z,37.14
2023-04-18T23:20:55.473Z,37.13
2023-04-18T23:23:58.039Z,36.91
2023-04-18T23:27:01.477Z,37.02
2023-04-18T23:30:04.461Z,36.45
2023-04-18T23:33:06.693Z,37.03
2023-04-18T23:36:09.171Z,36.83
2023-04-18T23:39:11.504Z,36.93
2023-04-18T23:42:13.673Z,37.03
2023-04-18T23:45:15.925Z,36.96
2023-04-18T23:48:18.080Z,37.27
2023-04-18T23:51:20.338Z,36.75
2023-04-18T23:54:22.511Z,36.83
2023-04-18T23:57:24.758Z,37.32
